This is the latest recevied weather packets stored in our database for station/object W6SNO-1. If no packets are shown the sender has not sent any weather packets the latest 10 day(s).
| Time | Temp. | Humidity | Pressure | Rain* | Wind** | Luminosity | Snow |
|---|---|---|---|---|---|---|---|
| 1777860968 | 15.56° C | 64% | 1012.8 hPa | 0 mm | - | 22 W/m² | - |
| 1777860664 | 15.56° C | 62% | 1012.7 hPa | 0 mm | - | 28 W/m² | - |
| 1777860361 | 16.11° C | 61% | 1012.7 hPa | 0 mm | - | 54 W/m² | - |
| 1777860057 | 16.11° C | 61% | 1012.6 hPa | 0 mm | - | 54 W/m² | - |
| 1777859754 | 15.56° C | 63% | 1012.5 hPa | 0 mm | - | 56 W/m² | - |
| 1777859449 | 15.56° C | 63% | 1012.5 hPa | 0 mm | - | 33 W/m² | - |
| 1777859146 | 15.56° C | 63% | 1012.5 hPa | 0 mm | - | 41 W/m² | - |
| 1777858843 | 16.11° C | 60% | 1012.5 hPa | 0 mm | - | 48 W/m² | - |
| 1777858541 | 16.67° C | 59% | 1012.8 hPa | 0 mm | - | 57 W/m² | - |
| 1777858238 | 17.22° C | 56% | 1012.8 hPa | 0 mm | - | 105 W/m² | - |
| 1777857935 | 16.67° C | 56% | 1012.8 hPa | 0 mm | - | 148 W/m² | - |
| 1777857633 | 16.67° C | 56% | 1012.8 hPa | 0 mm | - | 126 W/m² | - |
| 1777857330 | 18.33° C | 50% | 1012.7 hPa | 0 mm | - | 166 W/m² | - |
| 1777857026 | 18.33° C | 50% | 1012.7 hPa | 0 mm | - | 166 W/m² | - |
| 1777856721 | 18.33° C | 51% | 1012.6 hPa | 0 mm | - | 173 W/m² | - |
| 1777856417 | 18.89° C | 49% | 1012.8 hPa | 0 mm | - | 220 W/m² | - |
| 1777856114 | 18.89° C | 48% | 1012.8 hPa | 0 mm | - | 242 W/m² | - |
| 1777855812 | 18.89° C | 49% | 1012.7 hPa | 0 mm | - | 247 W/m² | - |
| 1777855510 | 18.89° C | 49% | 1012.7 hPa | 0 mm | - | 259 W/m² | - |
| 1777855206 | 18.89° C | 50% | 1012.7 hPa | 0 mm | - | 276 W/m² | - |
| 1777854902 | 18.89° C | 50% | 1012.5 hPa | 0 mm | - | 276 W/m² | - |
| 1777853084 | 19.44° C | 48% | 1012.4 hPa | 0 mm | - | 202 W/m² | - |
| 1777852782 | 19.44° C | 48% | 1012.3 hPa | 0 mm | - | 202 W/m² | - |
| 1777852479 | 19.44° C | 47% | 1012.4 hPa | 0 mm | - | 229 W/m² | - |
| 1777851874 | 18.33° C | 50% | 1012.4 hPa | 0 mm | - | 518 W/m² | - |
* Rain latest hour (hover to see other rain measurements)
** Current wind speed in m/s (hover to see current wind gust speed)